This is the latest recevied weather packets stored in our database for station/object HA2KAB-10. If no packets are shown the sender has not sent any weather packets the latest 10 day(s).
| Time | Temp. | Humidity | Pressure | Rain* | Wind** | Luminosity | Snow |
|---|---|---|---|---|---|---|---|
| 1777889220 | 21.67° C | 30% | 1023.1 hPa | - | - | - | - |
| 1777885680 | 21.67° C | 30% | 1023.3 hPa | - | - | - | - |
| 1777882140 | 22.22° C | 29% | 1023.2 hPa | - | - | - | - |
| 1777878600 | 22.22° C | 30% | 1023 hPa | - | - | - | - |
| 1777875060 | 21.67° C | 30% | 1022.9 hPa | - | - | - | - |
| 1777871520 | 20.56° C | 31% | 1022.8 hPa | - | - | - | - |
| 1777867980 | 18.33° C | 33% | 1022.6 hPa | - | - | - | - |
| 1777864440 | 17.78° C | 35% | 1022.7 hPa | - | - | - | - |
| 1777839654 | 19.44° C | 33% | 1023.4 hPa | - | - | - | - |
| 1777817485 | 21.11° C | 29% | 1023.7 hPa | - | - | - | - |
| 1777812513 | 21.67° C | 30% | 1024.2 hPa | - | - | - | - |
| 1777801892 | 22.22° C | 29% | 1025.5 hPa | - | - | - | - |
| 1777798352 | 22.78° C | 29% | 1025.7 hPa | - | - | - | - |
| 1777794812 | 22.22° C | 29% | 1025.6 hPa | - | - | - | - |
| 1777791272 | 21.67° C | 30% | 1025.3 hPa | - | - | - | - |
| 1777787731 | 20.56° C | 31% | 1025.1 hPa | - | - | - | - |
| 1777784191 | 18.89° C | 34% | 1024.8 hPa | - | - | - | - |
| 1777780650 | 17.22° C | 35% | 1024.7 hPa | - | - | - | - |
| 1777777110 | 17.22° C | 36% | 1024.5 hPa | - | - | - | - |
| 1777766485 | 17.78° C | 37% | 1024.9 hPa | - | - | - | - |
| 1777759403 | 17.78° C | 33% | 1025.2 hPa | - | - | - | - |
| 1777755863 | 17.78° C | 34% | 1025.3 hPa | - | - | - | - |
| 1777752323 | 18.33° C | 34% | 1025.5 hPa | - | - | - | - |
| 1777738161 | 18.89° C | 35% | 1025.3 hPa | - | - | - | - |
| 1777734621 | 19.44° C | 35% | 1025.7 hPa | - | - | - | - |
* Rain since midnight (hover to see other rain measurements)
** Current wind speed in m/s (hover to see current wind gust speed)